Time;durP1;ratioP1;P1;durP2;ratioP2;P2;SDS_P1;SDS_P2;PMS_P1;PMS_P2;Temp;Humidity;BMP_temperature;BMP_pressure;BME280_temperature;BME280_humidity;BME280_pressure;Samples;Min_cycle;Max_cycle;Signal;HPM_P1;HPM_P2
2021/08/30 00:01:53;;;;;;;5.45;4.00;;;16.10;99.90;;;;;;5011886;28;20071;-85
2021/08/30 00:04:19;;;;;;;6.07;4.53;;;16.10;99.90;;;;;;5011902;28;20038;-85
2021/08/30 00:06:44;;;;;;;5.30;4.28;;;16.10;99.90;;;;;;5011505;28;20355;-85
2021/08/30 00:09:10;;;;;;;4.50;3.75;;;16.10;99.90;;;;;;5012560;28;20512;-86
2021/08/30 00:11:36;;;;;;;4.50;4.10;;;16.10;99.90;;;;;;5011467;28;20041;-85
2021/08/30 00:14:03;;;;;;;5.85;4.07;;;16.00;99.90;;;;;;5011345;28;20041;-85
2021/08/30 00:16:28;;;;;;;5.88;4.18;;;16.00;99.90;;;;;;5011555;28;20026;-85
2021/08/30 00:18:54;;;;;;;4.95;4.45;;;16.10;99.90;;;;;;5011660;28;20038;-85
2021/08/30 00:21:20;;;;;;;5.13;4.53;;;16.00;99.90;;;;;;5012061;28;20025;-85
2021/08/30 00:23:45;;;;;;;5.00;4.50;;;16.00;99.90;;;;;;5011829;28;20474;-85
2021/08/30 00:26:11;;;;;;;4.68;4.18;;;15.90;99.90;;;;;;5011726;28;20022;-85
2021/08/30 00:28:37;;;;;;;6.93;4.70;;;15.90;99.90;;;;;;5011328;28;20067;-84
2021/08/30 00:31:03;;;;;;;5.60;4.90;;;15.90;99.90;;;;;;5012100;28;20113;-85
2021/08/30 00:33:28;;;;;;;5.60;4.88;;;15.90;99.90;;;;;;5011583;28;20570;-85
2021/08/30 00:35:54;;;;;;;7.18;4.68;;;15.90;99.90;;;;;;5011382;28;20021;-85
2021/08/30 00:38:20;;;;;;;6.25;4.40;;;15.80;99.90;;;;;;5011054;28;20029;-86
2021/08/30 00:40:45;;;;;;;5.88;4.93;;;15.80;99.90;;;;;;5011854;28;20034;-85
2021/08/30 00:43:11;;;;;;;6.65;5.05;;;15.70;99.90;;;;;;5011397;28;20034;-85
2021/08/30 00:45:37;;;;;;;6.43;4.38;;;15.70;99.90;;;;;;5011284;28;20550;-85
2021/08/30 00:48:03;;;;;;;6.07;4.57;;;15.80;99.90;;;;;;5011587;28;20395;-85
2021/08/30 00:50:29;;;;;;;5.00;4.35;;;15.80;99.90;;;;;;5010935;28;20026;-85
2021/08/30 00:52:57;;;;;;;4.95;4.47;;;15.70;99.90;;;;;;5011324;28;20041;-85
2021/08/30 00:55:23;;;;;;;5.07;4.20;;;15.70;99.90;;;;;;5011105;28;20041;-85
2021/08/30 00:57:50;;;;;;;6.88;4.63;;;15.70;99.90;;;;;;5010968;28;20041;-85
2021/08/30 01:00:16;;;;;;;4.80;4.30;;;15.70;99.90;;;;;;5011612;28;20034;-85
2021/08/30 01:02:43;;;;;;;4.43;3.70;;;15.60;99.90;;;;;;5011574;28;20036;-85
2021/08/30 01:05:11;;;;;;;5.40;4.40;;;15.50;99.90;;;;;;5010915;28;20026;-85
2021/08/30 01:08:05;;;;;;;6.82;4.40;;;15.50;99.90;;;;;;5010826;28;20026;-85
2021/08/30 01:10:44;;;;;;;4.72;4.28;;;15.60;99.90;;;;;;5010786;28;20026;-85
2021/08/30 01:13:15;;;;;;;5.00;4.50;;;15.40;99.90;;;;;;4997387;28;20451;-85
2021/08/30 01:15:46;;;;;;;6.10;4.32;;;15.40;99.90;;;;;;5011582;28;20034;-85
2021/08/30 01:18:18;;;;;;;4.60;4.10;;;15.50;99.90;;;;;;5009678;28;20022;-85
2021/08/30 01:21:16;;;;;;;4.97;4.32;;;15.50;99.90;;;;;;5010586;28;20410;-85
2021/08/30 01:23:45;;;;;;;5.85;4.30;;;15.40;99.90;;;;;;5010933;28;20378;-85
2021/08/30 01:26:14;;;;;;;4.80;4.13;;;15.30;99.90;;;;;;5012315;28;20028;-84
2021/08/30 01:29:14;;;;;;;5.70;4.13;;;15.30;99.90;;;;;;5013680;28;20041;-85
2021/08/30 01:31:46;;;;;;;6.30;4.40;;;15.40;99.90;;;;;;5014573;28;20493;-85
2021/08/30 01:34:14;;;;;;;5.07;4.20;;;15.40;99.90;;;;;;5014289;28;20034;-85
2021/08/30 01:36:40;;;;;;;6.38;4.10;;;15.40;99.90;;;;;;5013503;28;20042;-85
2021/08/30 01:39:06;;;;;;;4.65;4.25;;;15.40;99.90;;;;;;5015222;28;20116;-85
2021/08/30 01:41:33;;;;;;;5.20;4.35;;;15.40;99.90;;;;;;5014207;28;20052;-85
2021/08/30 01:43:59;;;;;;;4.75;4.18;;;15.50;99.90;;;;;;5014179;28;20113;-85
2021/08/30 01:46:26;;;;;;;4.85;4.28;;;15.40;99.90;;;;;;5014550;28;20026;-85
2021/08/30 01:48:53;;;;;;;5.43;4.28;;;15.30;99.90;;;;;;5014398;28;20026;-85
2021/08/30 01:51:23;;;;;;;4.68;4.25;;;15.30;99.90;;;;;;5014642;28;20030;-85
2021/08/30 01:53:51;;;;;;;4.47;4.07;;;15.30;99.90;;;;;;5014072;28;20041;-85
2021/08/30 01:56:18;;;;;;;4.95;4.20;;;15.40;99.90;;;;;;5014143;28;20394;-85
2021/08/30 02:01:33;;;;;;;4.35;3.95;;;15.50;99.90;;;;;;5014428;28;20041;-85
2021/08/30 02:03:59;;;;;;;5.95;4.30;;;15.60;99.90;;;;;;5014019;28;20037;-84
2021/08/30 02:06:25;;;;;;;4.72;4.22;;;15.40;99.90;;;;;;5010294;28;20018;-85
2021/08/30 02:08:52;;;;;;;5.82;4.13;;;15.50;99.90;;;;;;5013791;28;20042;-85
2021/08/30 02:11:25;;;;;;;5.00;4.20;;;15.60;99.90;;;;;;5013897;28;20034;-85
2021/08/30 02:13:50;;;;;;;6.80;4.65;;;15.50;99.90;;;;;;5014091;28;20034;-85
2021/08/30 02:16:16;;;;;;;4.20;3.80;;;15.50;99.90;;;;;;5013598;28;20022;-85
2021/08/30 02:18:45;;;;;;;4.30;3.90;;;15.50;99.90;;;;;;5013969;28;20046;-85
2021/08/30 02:21:50;;;;;;;4.70;4.15;;;15.50;99.90;;;;;;5012937;28;20026;-85
2021/08/30 02:24:36;;;;;;;4.80;4.28;;;15.60;99.90;;;;;;4952457;29;20146;-86
2021/08/30 02:27:25;;;;;;;6.55;4.10;;;15.70;99.90;;;;;;4952989;29;20436;-85
2021/08/30 02:30:06;;;;;;;4.90;3.80;;;15.60;99.90;;;;;;4948833;29;20062;-85
2021/08/30 02:32:33;;;;;;;4.97;4.25;;;15.70;99.90;;;;;;4948567;29;20061;-85
2021/08/30 02:35:02;;;;;;;6.45;4.80;;;15.70;99.90;;;;;;4948834;29;20098;-85
2021/08/30 02:37:33;;;;;;;4.75;4.22;;;15.70;99.90;;;;;;4948389;28;20058;-85
2021/08/30 02:40:00;;;;;;;4.43;3.88;;;15.70;99.90;;;;;;4937719;29;20177;-85
2021/08/30 02:42:29;;;;;;;7.35;4.57;;;15.50;99.90;;;;;;4953410;29;20138;-85
2021/08/30 02:44:57;;;;;;;6.10;5.00;;;15.40;99.90;;;;;;4952656;29;20048;-85
2021/08/30 02:47:23;;;;;;;5.15;4.47;;;15.20;99.90;;;;;;4948935;29;20494;-85
2021/08/30 02:49:51;;;;;;;5.28;3.92;;;15.30;99.90;;;;;;4948285;29;20050;-85
2021/08/30 02:52:20;;;;;;;5.53;4.18;;;15.20;99.90;;;;;;4950341;29;20047;-85
2021/08/30 02:54:50;;;;;;;5.13;4.63;;;15.10;99.90;;;;;;4951179;29;20082;-85
2021/08/30 02:57:16;;;;;;;5.78;4.78;;;15.20;99.90;;;;;;4953746;28;20214;-85
2021/08/30 02:59:42;;;;;;;5.22;4.40;;;15.20;99.90;;;;;;5010915;28;20049;-85
2021/08/30 03:02:09;;;;;;;6.43;4.32;;;15.30;99.90;;;;;;5013079;28;20026;-85
2021/08/30 03:04:36;;;;;;;6.00;4.78;;;15.30;99.90;;;;;;5013754;28;20042;-85
2021/08/30 03:07:02;;;;;;;4.75;4.20;;;15.10;99.90;;;;;;5012917;28;20014;-85
2021/08/30 03:09:29;;;;;;;5.35;4.43;;;15.20;99.90;;;;;;5013349;28;20041;-85
2021/08/30 03:11:56;;;;;;;4.32;3.92;;;15.30;99.90;;;;;;5013016;28;20129;-85
2021/08/30 03:14:24;;;;;;;4.85;4.35;;;15.20;99.90;;;;;;5012310;28;20037;-86
2021/08/30 03:17:05;;;;;;;5.95;4.20;;;15.20;99.90;;;;;;5012922;28;20125;-85
2021/08/30 03:19:31;;;;;;;6.43;4.70;;;15.20;99.90;;;;;;5012473;28;20026;-84
2021/08/30 03:22:00;;;;;;;6.82;4.35;;;15.20;99.90;;;;;;4996944;28;20117;-85
2021/08/30 03:24:27;;;;;;;8.23;4.63;;;15.20;99.90;;;;;;5008947;28;20467;-85
2021/08/30 03:26:54;;;;;;;5.82;4.72;;;15.20;99.90;;;;;;5013107;28;20034;-85
2021/08/30 03:29:22;;;;;;;5.03;4.13;;;15.20;99.90;;;;;;5012393;28;20026;-85
2021/08/30 03:31:50;;;;;;;6.60;4.93;;;15.20;99.90;;;;;;5012064;28;20026;-85
2021/08/30 03:34:17;;;;;;;7.18;4.95;;;15.20;99.90;;;;;;5012205;28;20517;-85
2021/08/30 03:36:43;;;;;;;5.35;4.85;;;15.20;99.90;;;;;;5012494;28;20064;-85
2021/08/30 03:39:09;;;;;;;5.10;4.60;;;15.20;99.90;;;;;;5010986;28;20067;-85
2021/08/30 03:41:38;;;;;;;5.50;4.90;;;15.20;99.90;;;;;;5012600;28;20030;-85
2021/08/30 03:44:04;;;;;;;6.90;5.35;;;15.10;99.90;;;;;;5011755;28;20501;-85
2021/08/30 03:46:30;;;;;;;5.13;4.63;;;15.00;99.90;;;;;;5011856;28;20087;-85
2021/08/30 03:48:56;;;;;;;5.13;4.60;;;15.00;99.90;;;;;;5011934;28;20184;-85
2021/08/30 03:51:23;;;;;;;5.72;4.88;;;15.00;99.90;;;;;;5012486;28;20059;-85
2021/08/30 03:53:52;;;;;;;5.90;4.68;;;15.00;99.90;;;;;;5012174;28;20037;-85
2021/08/30 03:56:18;;;;;;;5.60;5.00;;;15.00;99.90;;;;;;5011993;28;20021;-86
2021/08/30 03:58:45;;;;;;;5.30;4.80;;;15.20;99.90;;;;;;5011536;28;20363;-85
2021/08/30 04:01:14;;;;;;;6.18;4.85;;;15.20;99.90;;;;;;5012073;28;20021;-85
2021/08/30 04:03:44;;;;;;;6.40;5.22;;;15.20;99.90;;;;;;5012189;28;20500;-85
2021/08/30 04:06:11;;;;;;;7.47;5.00;;;15.10;99.90;;;;;;5010185;28;20015;-85
2021/08/30 04:08:37;;;;;;;5.10;4.60;;;15.00;99.90;;;;;;5011577;28;20036;-85
2021/08/30 04:11:05;;;;;;;5.97;4.80;;;15.00;99.90;;;;;;5011688;28;20038;-85
2021/08/30 04:13:31;;;;;;;5.10;4.60;;;15.00;99.90;;;;;;5011408;28;20037;-85
2021/08/30 04:15:57;;;;;;;6.53;5.10;;;15.10;99.90;;;;;;5012360;28;20044;-85
2021/08/30 04:18:23;;;;;;;7.50;5.57;;;15.10;99.90;;;;;;5012186;28;20460;-85
2021/08/30 04:20:48;;;;;;;5.45;4.93;;;15.00;99.90;;;;;;5011477;28;20053;-85
2021/08/30 04:23:14;;;;;;;6.85;5.55;;;15.00;99.90;;;;;;5011443;28;20497;-85
2021/08/30 04:25:40;;;;;;;5.45;4.95;;;15.10;99.90;;;;;;5011582;28;20504;-84
2021/08/30 04:28:06;;;;;;;8.52;5.50;;;15.00;99.90;;;;;;5011426;28;20084;-85
2021/08/30 04:30:31;;;;;;;6.63;5.20;;;15.00;99.90;;;;;;5010467;28;20033;-85
2021/08/30 04:32:58;;;;;;;5.45;4.90;;;15.00;99.90;;;;;;5011172;28;20026;-85
2021/08/30 04:35:23;;;;;;;5.95;5.15;;;15.00;99.90;;;;;;5009794;28;20466;-85
2021/08/30 04:37:49;;;;;;;5.75;4.93;;;15.10;99.90;;;;;;5011368;28;20112;-85
2021/08/30 04:40:15;;;;;;;6.93;5.07;;;15.20;99.90;;;;;;5011242;28;20034;-85
2021/08/30 04:42:41;;;;;;;7.05;4.60;;;15.20;99.90;;;;;;5011503;28;20053;-85
2021/08/30 04:45:08;;;;;;;6.05;4.68;;;15.20;99.90;;;;;;5011426;28;20112;-85
2021/08/30 04:47:34;;;;;;;5.88;5.00;;;15.40;99.90;;;;;;5011149;28;20033;-85
2021/08/30 04:50:01;;;;;;;6.82;4.60;;;15.20;99.90;;;;;;5011462;28;20021;-85
2021/08/30 04:52:26;;;;;;;6.13;5.20;;;15.20;99.90;;;;;;5011967;28;20022;-84
2021/08/30 04:54:52;;;;;;;5.25;4.75;;;15.30;99.90;;;;;;5011171;28;20746;-85
2021/08/30 04:57:18;;;;;;;6.07;5.20;;;15.30;99.90;;;;;;5011359;28;20060;-85
2021/08/30 04:59:43;;;;;;;7.88;4.80;;;15.30;99.90;;;;;;5010772;28;20042;-85
2021/08/30 05:02:09;;;;;;;6.18;4.60;;;15.20;99.90;;;;;;5014304;28;20026;-85
2021/08/30 05:04:35;;;;;;;9.00;5.20;;;15.20;99.90;;;;;;5015433;28;20034;-85
2021/08/30 05:07:02;;;;;;;7.07;4.80;;;15.20;99.90;;;;;;5015260;28;20022;-85
2021/08/30 05:09:28;;;;;;;5.75;5.00;;;15.20;99.90;;;;;;5015681;28;20042;-85
2021/08/30 05:11:54;;;;;;;6.32;5.20;;;15.20;99.90;;;;;;5014325;28;20065;-85
2021/08/30 05:14:20;;;;;;;6.13;4.90;;;15.10;99.90;;;;;;5014875;28;20018;-85
2021/08/30 05:16:45;;;;;;;5.68;5.00;;;15.20;99.90;;;;;;5016047;28;20030;-85
2021/08/30 05:19:11;;;;;;;6.55;5.25;;;15.20;99.90;;;;;;5014851;28;20109;-85
2021/08/30 05:21:37;;;;;;;6.60;5.47;;;15.20;99.90;;;;;;5015454;28;20096;-85
2021/08/30 05:24:03;;;;;;;6.68;5.30;;;15.20;99.90;;;;;;5015088;28;20065;-85
2021/08/30 05:26:29;;;;;;;5.57;5.07;;;15.20;99.90;;;;;;5014511;28;20080;-85
2021/08/30 05:28:54;;;;;;;5.95;5.25;;;15.40;99.90;;;;;;5014416;28;20030;-85
2021/08/30 05:31:20;;;;;;;5.07;4.55;;;15.40;99.90;;;;;;5015033;28;20036;-85
2021/08/30 05:33:45;;;;;;;6.68;5.30;;;15.50;99.90;;;;;;5014791;28;20026;-85
2021/08/30 05:36:11;;;;;;;7.80;4.90;;;15.40;99.90;;;;;;5015088;28;20080;-85
2021/08/30 05:38:36;;;;;;;6.22;5.03;;;15.40;99.90;;;;;;5014779;28;20441;-85
2021/08/30 05:41:02;;;;;;;6.05;5.32;;;15.30;99.90;;;;;;5014102;28;20037;-84
2021/08/30 05:43:28;;;;;;;6.30;5.68;;;15.30;99.90;;;;;;5014175;28;20029;-84
2021/08/30 05:45:53;;;;;;;5.28;4.78;;;15.20;99.90;;;;;;5014526;28;20085;-85
2021/08/30 05:48:19;;;;;;;5.95;5.35;;;15.20;99.90;;;;;;5014864;28;20386;-85
2021/08/30 05:50:44;;;;;;;6.07;5.47;;;15.10;99.90;;;;;;5014458;28;20113;-85
2021/08/30 05:53:10;;;;;;;7.63;4.60;;;15.20;99.90;;;;;;5013835;28;20084;-85
2021/08/30 05:55:36;;;;;;;5.93;4.75;;;15.30;99.90;;;;;;5014083;28;20041;-85
2021/08/30 05:58:01;;;;;;;5.07;4.57;;;15.50;99.90;;;;;;5014104;28;20026;-85
2021/08/30 06:00:27;;;;;;;9.57;5.07;;;15.50;99.90;;;;;;5030185;28;20081;-85
2021/08/30 06:02:53;;;;;;;6.32;5.10;;;15.40;99.90;;;;;;5014331;28;20136;-85
2021/08/30 06:05:18;;;;;;;5.43;4.93;;;15.30;99.90;;;;;;5014085;28;20087;-85
2021/08/30 06:07:44;;;;;;;6.78;5.45;;;15.40;99.90;;;;;;5013691;28;20022;-85
2021/08/30 06:10:10;;;;;;;17.55;7.35;;;15.50;99.90;;;;;;5014263;28;20040;-85
2021/08/30 06:12:37;;;;;;;5.75;5.20;;;15.40;99.90;;;;;;5012651;28;20049;-85
2021/08/30 06:15:03;;;;;;;6.15;5.32;;;15.60;99.90;;;;;;5013357;28;20018;-85
2021/08/30 06:17:29;;;;;;;6.60;5.22;;;15.60;99.90;;;;;;5014322;28;20088;-85
2021/08/30 06:19:55;;;;;;;6.15;5.55;;;15.30;99.90;;;;;;5013656;28;20050;-85
2021/08/30 06:22:21;;;;;;;6.38;5.25;;;15.30;99.90;;;;;;5013605;28;20514;-85
2021/08/30 06:24:47;;;;;;;6.57;5.75;;;15.20;99.90;;;;;;5013813;28;20046;-85
2021/08/30 06:27:15;;;;;;;7.05;5.63;;;15.10;99.90;;;;;;5014032;28;20018;-85
2021/08/30 06:29:40;;;;;;;6.22;5.38;;;15.30;99.90;;;;;;5013532;28;20397;-85
2021/08/30 06:32:06;;;;;;;7.95;5.90;;;15.40;99.90;;;;;;5013855;28;20026;-85
2021/08/30 06:34:32;;;;;;;7.82;6.20;;;15.30;99.90;;;;;;5013489;28;20410;-85
2021/08/30 06:36:58;;;;;;;7.03;5.38;;;15.40;99.90;;;;;;4997652;28;20029;-85
2021/08/30 06:39:23;;;;;;;5.75;4.95;;;15.40;99.90;;;;;;5014112;28;20379;-85
2021/08/30 06:41:49;;;;;;;5.30;4.80;;;15.50;99.90;;;;;;5013439;28;20044;-85
2021/08/30 06:44:15;;;;;;;6.55;5.50;;;15.40;99.90;;;;;;5013284;28;20025;-85
2021/08/30 06:46:40;;;;;;;7.20;5.13;;;15.50;99.90;;;;;;5013011;28;20402;-85
2021/08/30 06:49:06;;;;;;;6.85;5.53;;;15.70;99.90;;;;;;5013232;28;20017;-85
2021/08/30 06:51:32;;;;;;;6.82;5.90;;;15.70;99.90;;;;;;5013667;28;20030;-85
2021/08/30 06:53:58;;;;;;;6.03;5.18;;;15.80;99.90;;;;;;5013478;28;20064;-85
2021/08/30 06:56:23;;;;;;;6.05;5.45;;;15.70;99.90;;;;;;5011806;28;20029;-85
2021/08/30 06:58:49;;;;;;;8.32;5.57;;;15.80;99.90;;;;;;5012986;28;20057;-85
2021/08/30 07:01:15;;;;;;;6.40;5.13;;;15.80;99.90;;;;;;5012823;28;20105;-85
2021/08/30 07:03:40;;;;;;;7.68;5.20;;;15.80;99.90;;;;;;5012429;28;20101;-85
2021/08/30 07:06:06;;;;;;;5.70;5.10;;;15.70;99.90;;;;;;5013472;28;20032;-85
2021/08/30 07:08:32;;;;;;;5.70;5.07;;;15.90;99.90;;;;;;5012612;28;20040;-85
2021/08/30 07:10:57;;;;;;;6.35;5.75;;;15.80;99.90;;;;;;5012618;28;20038;-85
2021/08/30 07:13:23;;;;;;;6.13;5.40;;;15.80;99.90;;;;;;5013098;28;20486;-84
2021/08/30 07:15:48;;;;;;;7.00;4.95;;;15.90;99.90;;;;;;5013145;28;20025;-85
2021/08/30 07:18:15;;;;;;;7.70;5.18;;;16.00;99.90;;;;;;5013291;28;20101;-85
2021/08/30 07:20:41;;;;;;;6.18;5.35;;;16.10;99.90;;;;;;5012228;28;20557;-85
2021/08/30 07:23:08;;;;;;;5.50;5.00;;;16.20;99.90;;;;;;5012070;28;20433;-86
2021/08/30 07:25:34;;;;;;;6.40;5.38;;;16.20;99.90;;;;;;5012447;28;20033;-85
2021/08/30 07:28:00;;;;;;;5.32;4.63;;;16.20;99.90;;;;;;5012706;28;20434;-85
2021/08/30 07:30:25;;;;;;;5.82;4.78;;;16.40;99.90;;;;;;5013151;28;20026;-85
2021/08/30 07:32:51;;;;;;;6.00;4.88;;;16.40;99.90;;;;;;5012719;28;20069;-85
2021/08/30 07:35:17;;;;;;;6.40;5.70;;;16.40;99.90;;;;;;5011962;28;20410;-85
2021/08/30 07:37:42;;;;;;;5.30;4.80;;;16.40;99.90;;;;;;5012499;28;20553;-85
2021/08/30 07:40:09;;;;;;;7.70;5.03;;;16.50;99.90;;;;;;5012296;28;20490;-85
2021/08/30 07:42:35;;;;;;;5.43;4.93;;;16.60;99.90;;;;;;5012567;28;20105;-85
2021/08/30 07:45:02;;;;;;;6.38;5.13;;;16.80;99.90;;;;;;5011541;28;20045;-85
2021/08/30 07:47:28;;;;;;;7.03;5.10;;;16.70;99.90;;;;;;5012390;28;20026;-85
2021/08/30 07:49:54;;;;;;;7.63;5.03;;;16.70;99.90;;;;;;5011444;28;20033;-85
2021/08/30 07:52:20;;;;;;;5.50;4.97;;;16.70;99.90;;;;;;5012121;28;20026;-85
2021/08/30 07:54:47;;;;;;;5.43;4.80;;;16.60;99.90;;;;;;5012427;28;20067;-85
2021/08/30 07:57:13;;;;;;;5.20;4.60;;;16.60;99.90;;;;;;5012463;28;20402;-85
2021/08/30 07:59:39;;;;;;;5.72;4.88;;;16.70;99.90;;;;;;5011780;28;20038;-85
2021/08/30 08:02:05;;;;;;;6.07;4.82;;;16.80;99.90;;;;;;5012302;28;20018;-85
2021/08/30 08:04:30;;;;;;;4.97;4.50;;;16.90;99.90;;;;;;5011995;28;20068;-85
2021/08/30 08:06:56;;;;;;;5.15;4.65;;;16.70;99.90;;;;;;5011635;28;20018;-85
2021/08/30 08:09:21;;;;;;;5.10;4.60;;;16.60;99.90;;;;;;5012292;28;20029;-85
2021/08/30 08:11:47;;;;;;;6.43;5.13;;;16.50;99.90;;;;;;5012136;28;20057;-85
2021/08/30 08:14:13;;;;;;;5.18;4.65;;;16.40;99.90;;;;;;5012354;28;20022;-85
2021/08/30 08:16:39;;;;;;;5.15;4.68;;;16.50;99.90;;;;;;5011843;28;20045;-85
2021/08/30 08:19:05;;;;;;;6.45;4.90;;;16.70;99.90;;;;;;5011390;28;20081;-85
2021/08/30 08:21:31;;;;;;;4.88;4.38;;;17.00;99.90;;;;;;5011748;28;20029;-84
2021/08/30 08:23:57;;;;;;;5.22;4.72;;;17.20;99.90;;;;;;5011675;28;20030;-85
2021/08/30 08:26:23;;;;;;;5.28;4.60;;;17.20;99.90;;;;;;5011416;28;20014;-85
2021/08/30 08:28:48;;;;;;;6.20;4.82;;;17.10;99.90;;;;;;5011761;28;20057;-85
2021/08/30 08:31:14;;;;;;;5.57;4.57;;;17.20;99.90;;;;;;5011869;28;20390;-85
2021/08/30 08:33:41;;;;;;;6.05;4.72;;;17.30;99.90;;;;;;5011400;28;20407;-86
2021/08/30 08:36:06;;;;;;;4.60;4.20;;;17.40;99.90;;;;;;5011103;28;20498;-85
2021/08/30 08:38:32;;;;;;;5.25;4.63;;;17.50;99.90;;;;;;5011279;28;20142;-85
2021/08/30 08:40:58;;;;;;;6.03;4.78;;;17.60;99.90;;;;;;5011406;28;20026;-85
2021/08/30 08:43:23;;;;;;;7.72;4.28;;;17.70;99.90;;;;;;5011370;28;20105;-85
2021/08/30 08:45:50;;;;;;;4.70;3.97;;;17.60;99.90;;;;;;5011305;28;20069;-85
2021/08/30 08:48:19;;;;;;;4.32;3.92;;;18.00;99.90;;;;;;5011497;28;20065;-85
2021/08/30 08:50:45;;;;;;;5.93;4.50;;;18.00;99.90;;;;;;5011157;28;20029;-85
2021/08/30 08:53:10;;;;;;;5.00;4.30;;;18.10;99.90;;;;;;5011475;28;20026;-85
2021/08/30 08:55:38;;;;;;;6.15;3.70;;;18.00;99.90;;;;;;5011197;28;20129;-85
2021/08/30 08:58:12;;;;;;;5.43;4.50;;;18.00;99.90;;;;;;5011151;28;22632;-85
2021/08/30 09:00:39;;;;;;;5.18;4.10;;;18.00;99.90;;;;;;5011154;28;20034;-85
2021/08/30 09:03:16;;;;;;;5.50;4.43;;;17.90;99.90;;;;;;5011684;28;20545;-85
2021/08/30 09:05:43;;;;;;;6.10;4.80;;;17.80;99.90;;;;;;5010957;28;20401;-85
2021/08/30 09:08:33;;;;;;;5.45;4.45;;;17.70;99.90;;;;;;5011106;28;20022;-85
2021/08/30 09:11:00;;;;;;;4.55;4.15;;;17.90;99.90;;;;;;5003283;28;20038;-85
2021/08/30 09:13:32;;;;;;;4.65;4.25;;;18.10;99.90;;;;;;5011507;28;20496;-85
2021/08/30 09:16:00;;;;;;;5.03;3.95;;;18.10;99.90;;;;;;4994243;28;20045;-86
2021/08/30 09:18:29;;;;;;;5.20;4.60;;;18.10;99.90;;;;;;5007164;28;20053;-85
2021/08/30 09:20:56;;;;;;;4.93;3.92;;;18.10;99.90;;;;;;5010660;28;20030;-85
2021/08/30 09:23:28;;;;;;;4.85;4.45;;;18.10;99.90;;;;;;5011140;28;20104;-86
2021/08/30 09:26:00;;;;;;;5.78;4.50;;;17.90;99.90;;;;;;5010780;28;20033;-85
2021/08/30 09:28:30;;;;;;;6.05;4.60;;;17.70;99.90;;;;;;5011017;28;20065;-86
2021/08/30 09:30:57;;;;;;;6.25;4.53;;;17.60;99.90;;;;;;5010630;28;20037;-85
2021/08/30 09:33:23;;;;;;;5.32;4.55;;;17.80;99.90;;;;;;5011380;28;20036;-85
2021/08/30 09:35:57;;;;;;;5.25;4.75;;;17.90;99.90;;;;;;5011093;28;20121;-86
2021/08/30 09:38:23;;;;;;;5.43;4.68;;;18.10;99.90;;;;;;5011547;28;20100;-85
2021/08/30 09:40:49;;;;;;;6.78;4.70;;;18.30;99.90;;;;;;5010860;28;20038;-85
2021/08/30 09:43:20;;;;;;;4.97;4.57;;;18.40;99.90;;;;;;5009521;28;20033;-85
2021/08/30 09:45:46;;;;;;;4.60;4.20;;;18.40;99.90;;;;;;5010862;28;20452;-85
2021/08/30 09:48:23;;;;;;;4.97;4.47;;;18.40;99.90;;;;;;5014162;28;20034;-85
2021/08/30 09:50:49;;;;;;;5.55;4.40;;;18.40;99.90;;;;;;5014138;28;20117;-86
2021/08/30 09:53:14;;;;;;;4.63;4.22;;;18.60;99.90;;;;;;5014187;28;20467;-84
2021/08/30 09:55:41;;;;;;;5.28;4.13;;;18.80;99.90;;;;;;5014279;28;20405;-85
2021/08/30 09:58:06;;;;;;;5.18;4.40;;;19.00;99.90;;;;;;5014201;28;20017;-85
2021/08/30 10:00:34;;;;;;;4.75;4.30;;;19.40;99.90;;;;;;5014391;28;20509;-85
2021/08/30 10:03:00;;;;;;;7.30;4.75;;;19.90;99.90;;;;;;5014297;28;20025;-86
2021/08/30 10:05:30;;;;;;;4.60;4.20;;;20.50;99.90;;;;;;5013942;28;20060;-85
2021/08/30 10:07:59;;;;;;;4.85;4.35;;;20.70;99.90;;;;;;5014048;28;20474;-85
2021/08/30 10:10:25;;;;;;;4.30;3.90;;;21.00;99.90;;;;;;5014451;28;20018;-84
2021/08/30 10:12:52;;;;;;;4.65;4.25;;;21.00;99.90;;;;;;5013955;28;20044;-86
2021/08/30 10:15:20;;;;;;;5.85;4.20;;;20.40;99.90;;;;;;5014501;28;20028;-85
2021/08/30 10:17:47;;;;;;;4.43;3.97;;;20.10;99.90;;;;;;5012524;28;20040;-85
2021/08/30 10:20:22;;;;;;;6.25;4.20;;;20.20;99.90;;;;;;5013688;28;20405;-85
2021/08/30 10:23:00;;;;;;;5.10;4.40;;;19.90;99.90;;;;;;5013611;28;20117;-86
2021/08/30 10:25:26;;;;;;;4.20;3.83;;;20.00;99.90;;;;;;5013772;28;20036;-85
2021/08/30 10:28:10;;;;;;;5.05;3.83;;;20.10;99.90;;;;;;5013908;28;20101;-85
2021/08/30 10:30:37;;;;;;;4.93;3.90;;;21.90;99.90;;;;;;5010950;28;20489;-86
2021/08/30 10:33:08;;;;;;;4.00;3.60;;;23.20;99.90;;;;;;5013441;28;20390;-86
2021/08/30 10:35:37;;;;;;;4.47;4.07;;;24.20;99.90;;;;;;5013353;28;20496;-86
2021/08/30 10:38:05;;;;;;;4.57;3.70;;;24.50;99.90;;;;;;5013434;28;20049;-85
2021/08/30 10:40:37;;;;;;;5.25;4.20;;;23.80;99.90;;;;;;5013298;28;20120;-86
2021/08/30 10:43:15;;;;;;;3.75;3.45;;;22.70;99.90;;;;;;4998410;28;20026;-86
2021/08/30 10:45:44;;;;;;;5.35;4.13;;;22.90;99.90;;;;;;5013800;28;20509;-86
2021/08/30 10:48:16;;;;;;;4.53;4.13;;;22.80;99.90;;;;;;5012075;28;20025;-86
2021/08/30 10:50:50;;;;;;;4.00;3.60;;;23.10;99.90;;;;;;5013637;28;20056;-85
2021/08/30 10:53:23;;;;;;;5.13;4.03;;;23.60;99.90;;;;;;5013122;28;20034;-86
2021/08/30 10:55:54;;;;;;;4.60;4.20;;;23.50;99.90;;;;;;5013205;28;20045;-85
2021/08/30 10:58:22;;;;;;;5.35;3.80;;;22.50;99.90;;;;;;5012255;28;20534;-86
2021/08/30 11:00:50;;;;;;;4.93;3.60;;;22.90;99.90;;;;;;5012770;28;20421;-86
2021/08/30 11:03:33;;;;;;;4.88;3.90;;;23.30;99.90;;;;;;5028675;28;20422;-86
2021/08/30 11:06:19;;;;;;;5.22;4.03;;;26.00;99.90;;;;;;5013274;28;20038;-86
2021/08/30 11:08:45;;;;;;;4.50;3.80;;;27.80;99.90;;;;;;5012936;28;20049;-86
2021/08/30 11:11:15;;;;;;;4.65;3.65;;;30.10;99.90;;;;;;5012826;28;20041;-86
2021/08/30 11:13:43;;;;;;;3.80;3.45;;;28.80;99.90;;;;;;5012431;28;20038;-86
2021/08/30 11:16:21;;;;;;;3.58;3.28;;;27.50;99.90;;;;;;5012808;28;20502;-86
2021/08/30 11:19:14;;;;;;;3.65;3.35;;;27.20;99.90;;;;;;5012989;28;20405;-86
2021/08/30 11:21:50;;;;;;;4.55;3.47;;;27.00;99.90;;;;;;4992304;28;20037;-86
2021/08/30 11:24:32;;;;;;;5.25;3.60;;;26.50;99.90;;;;;;5012333;28;20030;-86
2021/08/30 11:27:05;;;;;;;4.00;3.55;;;25.20;99.90;;;;;;5012872;28;20032;-86
2021/08/30 11:29:40;;;;;;;4.28;3.78;;;24.60;99.90;;;;;;5012430;28;20030;-86
2021/08/30 11:32:07;;;;;;;6.05;4.18;;;23.60;99.90;;;;;;5013156;28;20441;-86
2021/08/30 11:34:36;;;;;;;6.10;4.22;;;24.60;99.90;;;;;;5011920;28;20498;-86
2021/08/30 11:37:03;;;;;;;4.40;3.50;;;25.80;99.90;;;;;;4997490;28;20506;-86
2021/08/30 11:39:31;;;;;;;3.80;3.45;;;24.80;99.90;;;;;;5012921;28;20029;-86
2021/08/30 11:42:03;;;;;;;3.78;3.35;;;24.20;99.90;;;;;;5012046;28;20422;-86
2021/08/30 11:44:31;;;;;;;3.33;2.90;;;23.60;99.90;;;;;;5011937;28;20125;-86
2021/08/30 11:46:59;;;;;;;3.05;2.75;;;25.70;99.90;;;;;;5012518;28;20022;-86
2021/08/30 11:49:30;;;;;;;3.65;3.08;;;25.80;99.90;;;;;;5012444;28;20516;-86
2021/08/30 11:52:01;;;;;;;4.07;3.30;;;25.00;99.90;;;;;;5012088;28;20034;-86
2021/08/30 11:54:39;;;;;;;3.22;2.53;;;24.60;99.90;;;;;;5008599;28;20378;-86
2021/08/30 11:57:06;;;;;;;3.92;2.80;;;24.10;99.90;;;;;;5011537;28;20048;-86
2021/08/30 11:59:38;;;;;;;3.90;2.65;;;24.10;99.90;;;;;;5011629;28;20041;-86
2021/08/30 12:02:06;;;;;;;4.53;2.72;;;24.30;99.90;;;;;;5011831;28;20033;-86
2021/08/30 12:04:36;;;;;;;2.67;2.40;;;24.20;99.90;;;;;;5012184;28;20030;-86
2021/08/30 12:07:04;;;;;;;4.65;2.63;;;24.40;99.90;;;;;;4997222;28;20152;-86
2021/08/30 12:09:52;;;;;;;2.40;2.17;;;24.50;99.90;;;;;;5012020;28;20033;-86
2021/08/30 12:12:27;;;;;;;2.72;2.30;;;24.20;99.90;;;;;;5011740;28;20056;-86
2021/08/30 12:14:58;;;;;;;2.60;1.98;;;24.20;99.90;;;;;;5011502;28;20096;-86
2021/08/30 12:17:25;;;;;;;2.95;2.10;;;26.40;99.90;;;;;;5011981;28;20391;-86
2021/08/30 12:19:52;;;;;;;3.03;2.33;;;25.80;99.90;;;;;;5011474;28;20406;-86
2021/08/30 12:22:31;;;;;;;2.60;2.00;;;26.70;99.90;;;;;;5011746;28;20029;-86
2021/08/30 12:25:04;;;;;;;2.70;2.10;;;29.40;99.90;;;;;;5011368;28;20025;-86
2021/08/30 12:27:41;;;;;;;2.70;2.10;;;27.10;99.90;;;;;;5008437;28;20034;-86
2021/08/30 12:30:28;;;;;;;3.33;2.08;;;28.70;99.90;;;;;;5011748;28;20057;-86
2021/08/30 12:32:59;;;;;;;2.40;2.20;;;29.20;99.90;;;;;;5011786;28;20034;-86
2021/08/30 12:35:47;;;;;;;2.40;2.20;;;27.50;99.90;;;;;;5011290;28;20115;-86
2021/08/30 12:38:16;;;;;;;2.17;1.98;;;25.90;99.90;;;;;;4997117;28;20034;-86
2021/08/30 12:40:45;;;;;;;3.72;1.95;;;25.30;99.90;;;;;;5011231;28;20108;-86
2021/08/30 12:43:11;;;;;;;2.33;2.13;;;24.90;99.90;;;;;;5010900;28;20034;-86
2021/08/30 12:45:37;;;;;;;3.05;2.10;;;26.00;99.90;;;;;;5012499;28;20029;-86
2021/08/30 12:48:06;;;;;;;2.17;1.90;;;28.00;99.90;;;;;;5011742;28;20030;-86
2021/08/30 12:50:32;;;;;;;1.90;1.80;;;28.10;99.90;;;;;;5011441;28;20096;-86
2021/08/30 12:52:58;;;;;;;2.40;2.20;;;28.40;99.90;;;;;;5011202;28;20018;-86
2021/08/30 12:55:23;;;;;;;2.67;1.80;;;27.50;99.90;;;;;;5010910;28;20037;-86
2021/08/30 12:57:49;;;;;;;2.15;1.90;;;27.30;99.90;;;;;;5011347;28;20026;-86